Slayton, MN

2:42 PM CST on January 16, 2017 (GMT -0600)
Badger Lake | | Change Station
Active Advisory: Winter Weather Advisory

Elev 1562 ft 43.92 °N, 95.71 °W | Updated 11 minutes ago

Overcast
Overcast
29.8 °F
Feels Like 30 °F
N
2.0
Wind Variable Wind from ENE
Gusts 2.5 mph

Today
High -- | Low -- °F
--% Chance of Precip.
Yesterday
High -- | Low -- °F
Precip. -- in
Pressure 29.98 in
Visibility 10.0 miles
Clouds Overcast 1300 ft
Windchill 30 °F
Dew Point 22 °F
Humidity 73%
Rainfall 0.00 in
Snow Depth Not available.
7:53 AM 5:12 PM
Waning Gibbous, 78% visible
METAR KDVP 162032Z AUTO 05007KT 10SM OVC013 M01/M03 A2998 RMK AO2 T10121030
Pressure 29.98 in
Visibility 10.0 miles
Clouds Overcast 1300 ft
Windchill 30 °F
Dew Point 22 °F
Humidity 73%
Rainfall 0.00 in
Snow Depth Not available.
7:53 AM 5:12 PM
Waning Gibbous, 78% visible
METAR KDVP 162032Z AUTO 05007KT 10SM OVC013 M01/M03 A2998 RMK AO2 T10121030

Get Your Daily Forecast Email!

Thanks for signing up!

Be on the lookout for a verification email in your inbox.

You'll start receiving the daily forecast at 8 AM.

×

10-Day Weather Forecast

Almanac

Astronomy

Jan. 16, 2017 Rise Set
Actual Time
Civil Twilight
Nautical Twilight
Astronomical Twilight
Moon
Length of Visible Light
Length of Day
Tomorrow will be .
, % of the Moon is Illuminated

Today's Extremes

State Highs State Lows

Community

WunderPhotos

Upload Photos

1,962,540 photos uploaded!

WunderBlog® & News

Nearby

Air Quality

  Air Quality AQ Index Pollutant
Not available.

Snow Depth

Station Depth Elevation

Earthquake Activity

City Distance Mag. Time & Date
Minimum magnitude displayed is 2.5.

Coastal Water Temperatures

Place Temperature

Stations

Nearby Weather Stations

Station Location Temp. Windchill Dew Point Humidity Wind Precip. Elev Updated Type
                   

Watches & Warnings

Winter Weather Advisory
Issued: 12:02 PM CST Jan. 16, 2017 – National Weather Service

... Winter Weather Advisory remains in effect until midnight CST
tonight...

* timing... light freezing rain and freezing drizzle will occur
this afternoon... transitioning over to light sleet or light snow
late this afternoon and evening.

* Accumulations... ice accumulations will range from a light glaze
to a tenth of an inch... followed by an inch or less of snowfall.

Precautionary/preparedness actions...

A Winter Weather Advisory means that periods of snow... sleet... or
freezing rain will cause travel difficulties. Be prepared for
slippery roads and limited visibilities... and use caution while
driving.